Terminal Aerodrome Forecast
Issued by NWS Memphis, TN

Home | Current Version | Previous Version | Text Only | Print | Product List | Glossary On
Versions: 1 2 3 4 5 6 7 8 9 10 11 12 13 14 15 16 17
791
FTUS44 KMEG 280801 RRA
TAFJBR
TAF
KJBR 280801Z 2808/2906 18010KT P6SM VCSH SCT015 OVC040
      TEMPO 2810/2814 BKN015
     FM281600 19010KT P6SM BKN045
     FM290100 18004KT P6SM SKC=

USA.gov is the U.S. government's official web portal to all federal, state and local government web resources and services.